Johann Essberger — CQKG — position and weather

sailwx.info

Track history (hours):
 
Tides and Currents Weather Stations Pressure Air Temp Water Temp Dewpoint Dewpoint Depression Visibility Wind Speed Wind Dir Waves Ship Positions

Johann Essberger

Last reported at 2015-Sep-04 00:34 UTC. Time now 2015-Sep-04 01:35 UTC.
Position N 54°32' E 010°32'.

Length 98 m; draft 7.2 m.

Type: Ship (hazmat cat B). MMSI: 255804460.

Date/timePositionNaut miles runAvg speedWind from/ knotsBaromVisibWave heightAir tempDewpointWater temp
2015-Sep-04 00:34N 54°32' E 010°32'1111.3
2015-Sep-03 23:34N 54°27' E 010°15'6 6.2
2015-Sep-03 22:33N 54°22' E 010°08'5 4.9
2015-Sep-03 21:33N 54°21' E 010°00'5 5.2
2015-Sep-03 20:33N 54°22' E 009°51'7 7.4
2015-Sep-03 19:33N 54°18' E 009°41'7 6.5
2015-Sep-03 18:33N 54°12' E 009°34'4 3.6
2015-Sep-03 17:33N 54°11' E 009°29'8 6.4
2015-Sep-03 16:23N 54°05' E 009°20'3 4.1
2015-Sep-03 15:33N 54°02' E 009°18'6 6.1
2015-Sep-03 14:33N 53°57' E 009°14'4 4.2
2015-Sep-03 13:33N 53°54' E 009°09'1 1.2
2015-Sep-03 12:33N 53°53' E 009°07'8 8.1
2015-Sep-03 11:33N 53°50' E 008°54'1111.1
2015-Sep-03 10:33N 53°57' E 008°38'1212.5
2015-Sep-03 09:33N 53°60' E 008°18'1211.7
2015-Sep-03 08:32N 53°58' E 007°58'1110.8
2015-Sep-03 07:33N 53°56' E 007°40'1010.2
2015-Sep-03 06:33N 53°53' E 007°23'1010.0
2015-Sep-03 05:31N 53°51' E 007°06'1010.1
2015-Sep-03 04:32N 53°48' E 006°49'1010.2
2015-Sep-03 03:32N 53°46' E 006°33'1010.5
2015-Sep-03 02:33N 53°43' E 006°16'1110.8
2015-Sep-03 01:34N 53°40' E 005°59'1111.1
2015-Sep-03 00:34N 53°36' E 005°41'1211.5
2015-Sep-02 23:33N 53°33' E 005°22'1211.7
2015-Sep-02 22:33N 53°29' E 005°04'1211.9
2015-Sep-02 21:33N 53°24' E 004°45'1110.3
2015-Sep-02 20:32N 53°15' E 004°36'1211.4
2015-Sep-02 19:29N 53°05' E 004°27'1111.5
2015-Sep-02 18:33N 52°55' E 004°18'1211.8
2015-Sep-02 17:33N 52°45' E 004°08'10 9.9
2015-Sep-02 16:33N 52°37' E 004°00'1211.7
2015-Sep-02 15:33N 52°26' E 003°54'1312.6
2015-Sep-02 14:33N 52°13' E 003°53'1111.0
2015-Sep-02 13:33N 52°02' E 003°54'1212.2
2015-Sep-02 12:33N 51°57' E 004°12'6 5.7
2015-Sep-02 11:34N 51°54' E 004°20'0 0.0
2015-Sep-02 10:31N 51°54' E 004°20'0 0.0
2015-Sep-02 09:25N 51°54' E 004°20'0 0.0
2015-Sep-02 08:25N 51°54' E 004°20'0 0.0
2015-Sep-02 07:31N 51°54' E 004°20'0 0.0
2015-Sep-02 06:31N 51°54' E 004°20'0 0.0
2015-Sep-02 05:25N 51°54' E 004°20'0 0.0
2015-Sep-02 04:31N 51°54' E 004°20'0 0.0
2015-Sep-02 03:31N 51°54' E 004°20'0 0.0
2015-Sep-02 02:31N 51°54' E 004°20'0 0.0
2015-Sep-02 01:31N 51°54' E 004°20'0 0.0
2015-Sep-02 00:31N 51°54' E 004°20'0 0.0
2015-Sep-01 23:33N 51°54' E 004°20'0 0.0
2015-Sep-01 22:33N 51°54' E 004°20'0 0.0
2015-Sep-01 21:27N 51°54' E 004°20'0 0.0
2015-Sep-01 20:30N 51°54' E 004°20'0 0.0
2015-Sep-01 19:33N 51°54' E 004°20'0 0.0
2015-Sep-01 18:33N 51°54' E 004°20'0 0.0
2015-Sep-01 17:33N 51°54' E 004°20'0 0.0
2015-Sep-01 16:33N 51°54' E 004°20'0 0.0
2015-Sep-01 15:33N 51°54' E 004°20'0 0.0
2015-Sep-01 14:33N 51°54' E 004°20'0 0.0
2015-Sep-01 13:30N 51°54' E 004°20'0 0.0
2015-Sep-01 12:34N 51°54' E 004°20'8 8.1
2015-Sep-01 11:33N 51°58' E 004°08'1111.5
2015-Sep-01 10:33N 52°01' E 003°50'28 2.8
2015-Sep-01 00:33N 51°42' E 003°16'1111.0
2015-Aug-31 23:33N 51°33' E 003°25'1010.1
2015-Aug-31 22:33N 51°26' E 003°37'1111.4
2015-Aug-31 21:33N 51°21' E 003°54'1010.2
2015-Aug-31 20:33N 51°23' E 004°10'9 9.1
2015-Aug-31 19:34N 51°17' E 004°20'0 0.4
2015-Aug-31 18:33N 51°16' E 004°20'1 1.0
2015-Aug-31 17:33N 51°16' E 004°22'0 0.0
2015-Aug-31 16:33N 51°16' E 004°22'0 0.0
2015-Aug-31 15:33N 51°16' E 004°22'0 0.0
2015-Aug-31 14:33N 51°16' E 004°22'0 0.0
2015-Aug-31 13:33N 51°16' E 004°22'0 0.0
2015-Aug-31 12:33N 51°16' E 004°22'0 0.0
2015-Aug-31 11:33N 51°16' E 004°22'0 0.0
2015-Aug-31 10:27N 51°16' E 004°22'0 0.0
2015-Aug-31 09:33N 51°16' E 004°22'0 0.0
2015-Aug-31 08:23N 51°16' E 004°22'0 0.0
2015-Aug-31 07:29N 51°16' E 004°22'0 0.0
2015-Aug-31 06:31N 51°16' E 004°22'0 0.0
2015-Aug-31 05:31N 51°16' E 004°22'0 0.0
2015-Aug-31 04:10N 51°16' E 004°22'0 0.0
2015-Aug-31 03:31N 51°16' E 004°22'0 0.0
2015-Aug-31 02:31N 51°16' E 004°22'0 0.0
2015-Aug-31 01:31N 51°16' E 004°22'0 0.0
2015-Aug-31 00:31N 51°16' E 004°22'0 0.0
2015-Aug-30 23:25N 51°16' E 004°22'0 0.0
2015-Aug-30 22:31N 51°16' E 004°22'0 0.0
2015-Aug-30 21:28N 51°16' E 004°22'0 0.0
2015-Aug-30 20:33N 51°16' E 004°22'0 0.0
2015-Aug-30 19:27N 51°16' E 004°22'0 0.0
2015-Aug-30 18:31N 51°16' E 004°22'0 0.0
2015-Aug-30 17:31N 51°16' E 004°22'0 0.0
2015-Aug-30 16:31N 51°16' E 004°22'0 0.0
2015-Aug-30 15:30N 51°16' E 004°22'0 0.0
2015-Aug-30 14:30N 51°16' E 004°22'0 0.0
2015-Aug-30 13:30N 51°16' E 004°22'0 0.0
2015-Aug-30 12:33N 51°16' E 004°22'0 0.0
2015-Aug-30 11:30N 51°16' E 004°22'0 0.0
2015-Aug-30 10:30N 51°16' E 004°22'0 0.0
2015-Aug-30 09:33N 51°16' E 004°22'0 0.0
2015-Aug-30 08:33N 51°16' E 004°22'0 0.0
2015-Aug-30 07:33N 51°16' E 004°22'0 0.0
2015-Aug-30 06:27N 51°16' E 004°22'0 0.0
2015-Aug-30 05:33N 51°16' E 004°22'0 0.0
2015-Aug-30 04:32N 51°16' E 004°22'0 0.0
2015-Aug-30 03:29N 51°16' E 004°22'0 0.0
2015-Aug-30 02:32N 51°16' E 004°22'0 0.0
2015-Aug-30 01:32N 51°16' E 004°22'0 0.0
2015-Aug-30 00:20N 51°16' E 004°22'0 0.0
2015-Aug-29 23:33N 51°16' E 004°22'0 0.0
2015-Aug-29 22:33N 51°16' E 004°22'0 0.0
2015-Aug-29 21:33N 51°16' E 004°22'0 0.0
2015-Aug-29 20:33N 51°16' E 004°22'0 0.0
2015-Aug-29 19:30N 51°16' E 004°22'0 0.0
2015-Aug-29 18:33N 51°16' E 004°22'0 0.0
2015-Aug-29 17:09N 51°16' E 004°22'0 0.0
2015-Aug-29 16:33N 51°16' E 004°22'0 0.0
2015-Aug-29 15:27N 51°16' E 004°22'0 0.0
2015-Aug-29 14:24N 51°16' E 004°22'0 0.0
2015-Aug-29 13:27N 51°16' E 004°22'0 0.0
2015-Aug-29 12:33N 51°16' E 004°22'0 0.0
2015-Aug-29 11:33N 51°16' E 004°22'0 0.0
2015-Aug-29 10:30N 51°16' E 004°22'0 0.0
2015-Aug-29 09:33N 51°16' E 004°22'0 0.0
2015-Aug-29 08:33N 51°16' E 004°22'1 0.8
2015-Aug-29 07:33N 51°16' E 004°21'2 1.4
2015-Aug-29 06:13N 51°18' E 004°20'0 0.0
2015-Aug-29 03:03N 51°18' E 004°20'0 0.0
2015-Aug-28 19:27N 51°18' E 004°20'0 0.0
2015-Aug-28 18:33N 51°18' E 004°20'0 0.0
2015-Aug-28 16:27N 51°18' E 004°20'28124.7
2015-Aug-28 05:04N 54°36' W 001°10'28179.9
2015-Aug-28 01:33N 51°18' E 004°20'3 3.2
2015-Aug-28 00:33N 51°21' E 004°17'1 0.6
2015-Aug-27 23:34N 51°21' E 004°16'5 5.2
2015-Aug-27 22:34N 51°22' E 004°08'7 7.0
2015-Aug-27 21:33N 51°25' E 003°58'9 8.9
2015-Aug-27 20:33N 51°22' E 003°44'8 8.5
2015-Aug-27 19:34N 51°27' E 003°32'79 7.9
2015-Aug-27 09:33N 52°28' E 002°11'1110.6
2015-Aug-27 08:32N 52°38' E 002°04'1111.0
2015-Aug-27 07:33N 52°47' E 001°54'1212.5
2015-Aug-27 06:33N 52°55' E 001°37'1212.4
2015-Aug-27 05:33N 53°05' E 001°26'4912.0
2015-Aug-27 01:30N 53°46' E 000°42'1212.3
2015-Aug-27 00:33N 53°56' E 000°30'1212.1
2015-Aug-26 23:33N 54°05' E 000°17'1211.7
2015-Aug-26 22:33N 54°13' E 000°02'1111.3
2015-Aug-26 21:33N 54°21' W 000°11'1110.9
2015-Aug-26 20:33N 54°29' W 000°24'1110.4
2015-Aug-26 19:33N 54°34' W 000°40'1111.1
2015-Aug-26 18:33N 54°38' W 000°57'8 7.0
2015-Aug-26 17:28N 54°36' W 001°10'0 0.0
2015-Aug-26 14:05N 54°36' W 001°10'0 0.0
2015-Aug-26 09:08N 54°36' W 001°10'0 0.0
2015-Aug-26 08:23N 54°36' W 001°10'0 0.0
2015-Aug-26 07:29N 54°36' W 001°10'1 0.6
2015-Aug-26 05:21N 54°37' W 001°09'2 0.1
2015-Aug-25 17:05N 54°39' W 001°08'3 4.2
2015-Aug-25 16:29N 54°41' W 001°05'0 0.0
2015-Aug-25 15:32N 54°41' W 001°05'0 0.0
2015-Aug-25 14:26N 54°41' W 001°05'0 0.0
2015-Aug-25 13:29N 54°41' W 001°05'0 0.0
2015-Aug-25 12:32N 54°40' W 001°05'0 0.0
2015-Aug-25 11:32N 54°40' W 001°05'0 0.0
2015-Aug-25 10:29N 54°41' W 001°05'0 0.0
2015-Aug-25 09:32N 54°40' W 001°05'0 0.0
2015-Aug-25 08:32N 54°40' W 001°05'0 0.0
2015-Aug-25 07:32N 54°41' W 001°05'0 0.0
2015-Aug-25 06:32N 54°41' W 001°05'0 0.0
2015-Aug-25 05:32N 54°40' W 001°05'0 0.0
2015-Aug-25 04:23N 54°41' W 001°05'0 0.0
2015-Aug-25 03:29N 54°40' W 001°05'0 0.0
2015-Aug-25 02:29N 54°40' W 001°05'0 0.0
2015-Aug-25 01:29N 54°40' W 001°05'  
Track history (hours):
 
Tides and Currents Weather Stations Pressure Air Temp Water Temp Dewpoint Dewpoint Depression Visibility Wind Speed Wind Dir Waves Ship Positions

Johann Essberger

Last reported at 2015-Sep-04 00:34 UTC. Time now 2015-Sep-04 01:35 UTC.
Position N 54°32' E 010°32'.

Length 98 m; draft 7.2 m.

Type: Ship (hazmat cat B). MMSI: 255804460.

Date/timePositionNaut miles runAvg speedWind from/ knotsBaromVisibWave heightAir tempDewpointWater temp
2015-Sep-04 00:34N 54°32' E 010°32'1111.3
2015-Sep-03 23:34N 54°27' E 010°15'6 6.2
2015-Sep-03 22:33N 54°22' E 010°08'5 4.9
2015-Sep-03 21:33N 54°21' E 010°00'5 5.2
2015-Sep-03 20:33N 54°22' E 009°51'7 7.4
2015-Sep-03 19:33N 54°18' E 009°41'7 6.5
2015-Sep-03 18:33N 54°12' E 009°34'4 3.6
2015-Sep-03 17:33N 54°11' E 009°29'8 6.4
2015-Sep-03 16:23N 54°05' E 009°20'3 4.1
2015-Sep-03 15:33N 54°02' E 009°18'6 6.1
2015-Sep-03 14:33N 53°57' E 009°14'4 4.2
2015-Sep-03 13:33N 53°54' E 009°09'1 1.2
2015-Sep-03 12:33N 53°53' E 009°07'8 8.1
2015-Sep-03 11:33N 53°50' E 008°54'1111.1
2015-Sep-03 10:33N 53°57' E 008°38'1212.5
2015-Sep-03 09:33N 53°60' E 008°18'1211.7
2015-Sep-03 08:32N 53°58' E 007°58'1110.8
2015-Sep-03 07:33N 53°56' E 007°40'1010.2
2015-Sep-03 06:33N 53°53' E 007°23'1010.0
2015-Sep-03 05:31N 53°51' E 007°06'1010.1
2015-Sep-03 04:32N 53°48' E 006°49'1010.2
2015-Sep-03 03:32N 53°46' E 006°33'1010.5
2015-Sep-03 02:33N 53°43' E 006°16'1110.8
2015-Sep-03 01:34N 53°40' E 005°59'1111.1
2015-Sep-03 00:34N 53°36' E 005°41'1211.5
2015-Sep-02 23:33N 53°33' E 005°22'1211.7
2015-Sep-02 22:33N 53°29' E 005°04'1211.9
2015-Sep-02 21:33N 53°24' E 004°45'1110.3
2015-Sep-02 20:32N 53°15' E 004°36'1211.4
2015-Sep-02 19:29N 53°05' E 004°27'1111.5
2015-Sep-02 18:33N 52°55' E 004°18'1211.8
2015-Sep-02 17:33N 52°45' E 004°08'10 9.9
2015-Sep-02 16:33N 52°37' E 004°00'1211.7
2015-Sep-02 15:33N 52°26' E 003°54'1312.6
2015-Sep-02 14:33N 52°13' E 003°53'1111.0
2015-Sep-02 13:33N 52°02' E 003°54'1212.2
2015-Sep-02 12:33N 51°57' E 004°12'6 5.7
2015-Sep-02 11:34N 51°54' E 004°20'0 0.0
2015-Sep-02 10:31N 51°54' E 004°20'0 0.0
2015-Sep-02 09:25N 51°54' E 004°20'0 0.0
2015-Sep-02 08:25N 51°54' E 004°20'0 0.0
2015-Sep-02 07:31N 51°54' E 004°20'0 0.0
2015-Sep-02 06:31N 51°54' E 004°20'0 0.0
2015-Sep-02 05:25N 51°54' E 004°20'0 0.0
2015-Sep-02 04:31N 51°54' E 004°20'0 0.0
2015-Sep-02 03:31N 51°54' E 004°20'0 0.0
2015-Sep-02 02:31N 51°54' E 004°20'0 0.0
2015-Sep-02 01:31N 51°54' E 004°20'0 0.0
2015-Sep-02 00:31N 51°54' E 004°20'0 0.0
2015-Sep-01 23:33N 51°54' E 004°20'0 0.0
2015-Sep-01 22:33N 51°54' E 004°20'0 0.0
2015-Sep-01 21:27N 51°54' E 004°20'0 0.0
2015-Sep-01 20:30N 51°54' E 004°20'0 0.0
2015-Sep-01 19:33N 51°54' E 004°20'0 0.0
2015-Sep-01 18:33N 51°54' E 004°20'0 0.0
2015-Sep-01 17:33N 51°54' E 004°20'0 0.0
2015-Sep-01 16:33N 51°54' E 004°20'0 0.0
2015-Sep-01 15:33N 51°54' E 004°20'0 0.0
2015-Sep-01 14:33N 51°54' E 004°20'0 0.0
2015-Sep-01 13:30N 51°54' E 004°20'0 0.0
2015-Sep-01 12:34N 51°54' E 004°20'8 8.1
2015-Sep-01 11:33N 51°58' E 004°08'1111.5
2015-Sep-01 10:33N 52°01' E 003°50'28 2.8
2015-Sep-01 00:33N 51°42' E 003°16'1111.0
2015-Aug-31 23:33N 51°33' E 003°25'1010.1
2015-Aug-31 22:33N 51°26' E 003°37'1111.4
2015-Aug-31 21:33N 51°21' E 003°54'1010.2
2015-Aug-31 20:33N 51°23' E 004°10'9 9.1
2015-Aug-31 19:34N 51°17' E 004°20'0 0.4
2015-Aug-31 18:33N 51°16' E 004°20'1 1.0
2015-Aug-31 17:33N 51°16' E 004°22'0 0.0
2015-Aug-31 16:33N 51°16' E 004°22'0 0.0
2015-Aug-31 15:33N 51°16' E 004°22'0 0.0
2015-Aug-31 14:33N 51°16' E 004°22'0 0.0
2015-Aug-31 13:33N 51°16' E 004°22'0 0.0
2015-Aug-31 12:33N 51°16' E 004°22'0 0.0
2015-Aug-31 11:33N 51°16' E 004°22'0 0.0
2015-Aug-31 10:27N 51°16' E 004°22'0 0.0
2015-Aug-31 09:33N 51°16' E 004°22'0 0.0
2015-Aug-31 08:23N 51°16' E 004°22'0 0.0
2015-Aug-31 07:29N 51°16' E 004°22'0 0.0
2015-Aug-31 06:31N 51°16' E 004°22'0 0.0
2015-Aug-31 05:31N 51°16' E 004°22'0 0.0
2015-Aug-31 04:10N 51°16' E 004°22'0 0.0
2015-Aug-31 03:31N 51°16' E 004°22'0 0.0
2015-Aug-31 02:31N 51°16' E 004°22'0 0.0
2015-Aug-31 01:31N 51°16' E 004°22'0 0.0
2015-Aug-31 00:31N 51°16' E 004°22'0 0.0
2015-Aug-30 23:25N 51°16' E 004°22'0 0.0
2015-Aug-30 22:31N 51°16' E 004°22'0 0.0
2015-Aug-30 21:28N 51°16' E 004°22'0 0.0
2015-Aug-30 20:33N 51°16' E 004°22'0 0.0
2015-Aug-30 19:27N 51°16' E 004°22'0 0.0
2015-Aug-30 18:31N 51°16' E 004°22'0 0.0
2015-Aug-30 17:31N 51°16' E 004°22'0 0.0
2015-Aug-30 16:31N 51°16' E 004°22'0 0.0
2015-Aug-30 15:30N 51°16' E 004°22'0 0.0
2015-Aug-30 14:30N 51°16' E 004°22'0 0.0
2015-Aug-30 13:30N 51°16' E 004°22'0 0.0
2015-Aug-30 12:33N 51°16' E 004°22'0 0.0
2015-Aug-30 11:30N 51°16' E 004°22'0 0.0
2015-Aug-30 10:30N 51°16' E 004°22'0 0.0
2015-Aug-30 09:33N 51°16' E 004°22'0 0.0
2015-Aug-30 08:33N 51°16' E 004°22'0 0.0
2015-Aug-30 07:33N 51°16' E 004°22'0 0.0
2015-Aug-30 06:27N 51°16' E 004°22'0 0.0
2015-Aug-30 05:33N 51°16' E 004°22'0 0.0
2015-Aug-30 04:32N 51°16' E 004°22'0 0.0
2015-Aug-30 03:29N 51°16' E 004°22'0 0.0
2015-Aug-30 02:32N 51°16' E 004°22'0 0.0
2015-Aug-30 01:32N 51°16' E 004°22'0 0.0
2015-Aug-30 00:20N 51°16' E 004°22'0 0.0
2015-Aug-29 23:33N 51°16' E 004°22'0 0.0
2015-Aug-29 22:33N 51°16' E 004°22'0 0.0
2015-Aug-29 21:33N 51°16' E 004°22'0 0.0
2015-Aug-29 20:33N 51°16' E 004°22'0 0.0
2015-Aug-29 19:30N 51°16' E 004°22'0 0.0
2015-Aug-29 18:33N 51°16' E 004°22'0 0.0
2015-Aug-29 17:09N 51°16' E 004°22'0 0.0
2015-Aug-29 16:33N 51°16' E 004°22'0 0.0
2015-Aug-29 15:27N 51°16' E 004°22'0 0.0
2015-Aug-29 14:24N 51°16' E 004°22'0 0.0
2015-Aug-29 13:27N 51°16' E 004°22'0 0.0
2015-Aug-29 12:33N 51°16' E 004°22'0 0.0
2015-Aug-29 11:33N 51°16' E 004°22'0 0.0
2015-Aug-29 10:30N 51°16' E 004°22'0 0.0
2015-Aug-29 09:33N 51°16' E 004°22'0 0.0
2015-Aug-29 08:33N 51°16' E 004°22'1 0.8
2015-Aug-29 07:33N 51°16' E 004°21'2 1.4
2015-Aug-29 06:13N 51°18' E 004°20'0 0.0
2015-Aug-29 03:03N 51°18' E 004°20'0 0.0
2015-Aug-28 19:27N 51°18' E 004°20'0 0.0
2015-Aug-28 18:33N 51°18' E 004°20'0 0.0
2015-Aug-28 16:27N 51°18' E 004°20'28124.7
2015-Aug-28 05:04N 54°36' W 001°10'28179.9
2015-Aug-28 01:33N 51°18' E 004°20'3 3.2
2015-Aug-28 00:33N 51°21' E 004°17'1 0.6
2015-Aug-27 23:34N 51°21' E 004°16'5 5.2
2015-Aug-27 22:34N 51°22' E 004°08'7 7.0
2015-Aug-27 21:33N 51°25' E 003°58'9 8.9
2015-Aug-27 20:33N 51°22' E 003°44'8 8.5
2015-Aug-27 19:34N 51°27' E 003°32'79 7.9
2015-Aug-27 09:33N 52°28' E 002°11'1110.6
2015-Aug-27 08:32N 52°38' E 002°04'1111.0
2015-Aug-27 07:33N 52°47' E 001°54'1212.5
2015-Aug-27 06:33N 52°55' E 001°37'1212.4
2015-Aug-27 05:33N 53°05' E 001°26'4912.0
2015-Aug-27 01:30N 53°46' E 000°42'1212.3
2015-Aug-27 00:33N 53°56' E 000°30'1212.1
2015-Aug-26 23:33N 54°05' E 000°17'1211.7
2015-Aug-26 22:33N 54°13' E 000°02'1111.3
2015-Aug-26 21:33N 54°21' W 000°11'1110.9
2015-Aug-26 20:33N 54°29' W 000°24'1110.4
2015-Aug-26 19:33N 54°34' W 000°40'1111.1
2015-Aug-26 18:33N 54°38' W 000°57'8 7.0
2015-Aug-26 17:28N 54°36' W 001°10'0 0.0
2015-Aug-26 14:05N 54°36' W 001°10'0 0.0
2015-Aug-26 09:08N 54°36' W 001°10'0 0.0
2015-Aug-26 08:23N 54°36' W 001°10'0 0.0
2015-Aug-26 07:29N 54°36' W 001°10'1 0.6
2015-Aug-26 05:21N 54°37' W 001°09'2 0.1
2015-Aug-25 17:05N 54°39' W 001°08'3 4.2
2015-Aug-25 16:29N 54°41' W 001°05'0 0.0
2015-Aug-25 15:32N 54°41' W 001°05'0 0.0
2015-Aug-25 14:26N 54°41' W 001°05'0 0.0
2015-Aug-25 13:29N 54°41' W 001°05'0 0.0
2015-Aug-25 12:32N 54°40' W 001°05'0 0.0
2015-Aug-25 11:32N 54°40' W 001°05'0 0.0
2015-Aug-25 10:29N 54°41' W 001°05'0 0.0
2015-Aug-25 09:32N 54°40' W 001°05'0 0.0
2015-Aug-25 08:32N 54°40' W 001°05'0 0.0
2015-Aug-25 07:32N 54°41' W 001°05'0 0.0
2015-Aug-25 06:32N 54°41' W 001°05'0 0.0
2015-Aug-25 05:32N 54°40' W 001°05'0 0.0
2015-Aug-25 04:23N 54°41' W 001°05'0 0.0
2015-Aug-25 03:29N 54°40' W 001°05'0 0.0
2015-Aug-25 02:29N 54°40' W 001°05'0 0.0
2015-Aug-25 01:29N 54°40' W 001°05'  

Dump ship's entire track history